Taylor, Utah
Current Conditions -  °F | °C
As of 11:53 AM on Tuesday 21 Oct 2014 (Local Time) from KOGD Reporting Station
Broken Clouds Broken Clouds  
Wind Chill: 60°   Ceiling: 7000
Heat Index: 60°   Visibility: 10mi
Dew Point: 40°   Wind: 16mph
Humidity: 47%   Direction: 330°NNW
Pressure: 29.98"   Gusts: NA
Location:  41.2221°N, 112.033°W
Report Text: KOGD 211753Z 33014KT 10SM BKN070 16/04 A2998 RMK AO2 SLP114 T01560044 10194 20156 51028
Loading
Personal Weather Stations






























Interactive Weather Map
Tropical Storm Tracking
New forecast layout! Learn more

10-Day Weather Forecast

Advertisements
Track Severe Weather on mobile